Terminal Aerodrome Forecast
Issued by NWS

Home | Current Version | Previous Version | Text Only | Print | Product List | Glossary On
Versions: 1 2 3 4 5 6 7 8 9 10 11 12 13 14 15 16 17 18 19 20 21 22 23 24 25 26 27 28 29 30 31 32 33 34 35 36 37 38
000
FTUS44 KOUN 060634 AAA
TAFLAW
TAF AMD
KLAW 060634Z 0607/0706 09007KT 1/4SM FG VV001
     FM060900 02011KT 2SM BR BKN007
     FM061200 01018G27KT P6SM SCT010 BKN150
     FM070000 03006KT P6SM BKN250=

USA.gov is the U.S. government's official web portal to all federal, state and local government web resources and services.